createdAt,value
2023-03-12T00:01:17.110Z,0.56
2023-03-12T00:03:44.859Z,0.58
2023-03-12T00:06:12.737Z,0.68
2023-03-12T00:08:42.302Z,0.63
2023-03-12T00:11:11.853Z,0.63
2023-03-12T00:13:39.964Z,0.50
2023-03-12T00:16:10.077Z,0.52
2023-03-12T00:18:37.847Z,0.51
2023-03-12T00:21:06.979Z,0.54
2023-03-12T00:23:35.143Z,0.61
2023-03-12T00:26:06.785Z,0.51
2023-03-12T00:28:35.505Z,0.60
2023-03-12T00:31:03.579Z,0.60
2023-03-12T00:33:31.415Z,0.61
2023-03-12T00:36:01.913Z,0.53
2023-03-12T00:38:29.703Z,0.55
2023-03-12T00:40:57.405Z,0.50
2023-03-12T00:43:26.645Z,0.56
2023-03-12T00:45:54.391Z,0.49
2023-03-12T00:48:22.060Z,0.52
2023-03-12T00:50:49.712Z,0.54
2023-03-12T00:53:17.456Z,0.48
2023-03-12T00:55:45.288Z,0.33
2023-03-12T00:58:12.978Z,0.52
2023-03-12T01:00:42.097Z,0.64
2023-03-12T01:03:09.812Z,0.59
2023-03-12T01:05:40.518Z,0.55
2023-03-12T01:08:09.140Z,0.54
2023-03-12T01:10:37.649Z,0.50
2023-03-12T01:13:05.308Z,0.68
2023-03-12T01:15:33.217Z,0.62
2023-03-12T01:18:02.294Z,0.69
2023-03-12T01:20:30.045Z,0.63
2023-03-12T01:22:57.870Z,0.66
2023-03-12T01:25:25.615Z,0.67
2023-03-12T01:27:53.284Z,0.59
2023-03-12T01:30:20.987Z,0.68
2023-03-12T01:32:48.754Z,0.72
2023-03-12T01:35:17.862Z,0.66
2023-03-12T01:37:45.589Z,0.66
2023-03-12T01:40:15.994Z,0.64
2023-03-12T01:42:43.440Z,0.65
2023-03-12T01:45:44.378Z,0.82
2023-03-12T01:48:12.079Z,0.82
2023-03-12T01:50:41.181Z,0.75
2023-03-12T01:53:08.980Z,0.79
2023-03-12T01:55:36.688Z,0.79
2023-03-12T01:58:04.557Z,0.95
2023-03-12T02:00:32.217Z,0.84
2023-03-12T02:03:03.296Z,0.84
2023-03-12T02:05:34.652Z,0.75
2023-03-12T02:08:03.673Z,0.77
2023-03-12T02:10:31.310Z,0.74
2023-03-12T02:12:59.134Z,0.77
2023-03-12T02:15:27.749Z,0.81
2023-03-12T02:17:55.576Z,0.86
2023-03-12T02:20:29.079Z,0.80
2023-03-12T02:23:04.763Z,0.84
2023-03-12T02:25:38.470Z,0.90
2023-03-12T02:28:09.547Z,0.84
2023-03-12T02:30:38.134Z,0.80
2023-03-12T02:33:08.711Z,0.81
2023-03-12T02:35:37.543Z,0.81
2023-03-12T02:38:25.575Z,0.85
2023-03-12T02:40:56.853Z,0.80
2023-03-12T02:43:24.905Z,0.77
2023-03-12T02:45:52.684Z,0.65
2023-03-12T02:48:20.426Z,0.68
2023-03-12T02:50:48.084Z,0.62
2023-03-12T02:53:15.914Z,0.52
2023-03-12T02:55:43.601Z,0.53
2023-03-12T02:58:12.727Z,0.49
2023-03-12T03:00:40.401Z,0.45
2023-03-12T03:03:08.107Z,0.43
2023-03-12T03:05:37.777Z,0.31
2023-03-12T03:08:06.376Z,0.34
2023-03-12T03:10:34.095Z,0.38
2023-03-12T03:13:01.764Z,0.24
2023-03-12T03:15:30.808Z,0.28
2023-03-12T03:17:59.244Z,0.30
2023-03-12T03:20:26.996Z,0.30
2023-03-12T03:22:54.682Z,0.18
2023-03-12T03:25:23.564Z,0.17
2023-03-12T03:27:51.296Z,0.15
2023-03-12T03:30:19.348Z,0.07
2023-03-12T03:32:48.760Z,0.09
2023-03-12T03:35:16.737Z,0.03
2023-03-12T03:37:44.488Z,-0.01
2023-03-12T03:40:13.461Z,-0.05
2023-03-12T03:42:41.402Z,-0.01
2023-03-12T03:45:10.200Z,-0.03
2023-03-12T03:47:37.986Z,0.00
2023-03-12T03:50:08.461Z,0.05
2023-03-12T03:52:35.898Z,0.14
2023-03-12T03:55:03.669Z,0.03
2023-03-12T03:57:31.343Z,-0.02
2023-03-12T04:00:03.392Z,-0.10
2023-03-12T04:02:31.361Z,-0.08
2023-03-12T04:04:59.400Z,0.01
2023-03-12T04:07:29.119Z,0.06
2023-03-12T04:09:57.582Z,-0.05
2023-03-12T04:12:26.113Z,-0.09
2023-03-12T04:14:53.908Z,-0.12
2023-03-12T04:17:21.619Z,-0.21
2023-03-12T04:19:49.300Z,-0.23
2023-03-12T04:22:16.994Z,-0.18
2023-03-12T04:24:46.520Z,-0.11
2023-03-12T04:27:14.209Z,-0.10
2023-03-12T04:29:42.065Z,-0.17
2023-03-12T04:32:09.783Z,-0.23
2023-03-12T04:34:37.486Z,-0.25
2023-03-12T04:37:05.120Z,-0.28
2023-03-12T04:39:32.829Z,-0.29
2023-03-12T04:42:01.811Z,-0.26
2023-03-12T04:44:29.605Z,-0.25
2023-03-12T04:46:57.323Z,-0.29
2023-03-12T04:49:25.011Z,-0.26
2023-03-12T04:51:52.649Z,-0.34
2023-03-12T04:54:21.349Z,-0.38
2023-03-12T04:56:49.217Z,-0.40
2023-03-12T04:59:18.424Z,-0.36
2023-03-12T05:01:46.093Z,-0.34
2023-03-12T05:04:13.821Z,-0.39
2023-03-12T05:06:41.516Z,-0.41
2023-03-12T05:09:09.281Z,-0.45
2023-03-12T05:11:39.611Z,-0.44
2023-03-12T05:14:07.527Z,-0.45
2023-03-12T05:16:36.621Z,-0.49
2023-03-12T05:19:04.910Z,-0.53
2023-03-12T05:21:32.604Z,-0.47
2023-03-12T05:24:00.560Z,-0.44
2023-03-12T05:26:31.414Z,-0.41
2023-03-12T05:28:59.562Z,-0.50
2023-03-12T05:31:27.657Z,-0.56
2023-03-12T05:33:56.715Z,-0.53
2023-03-12T05:36:24.402Z,-0.48
2023-03-12T05:38:52.447Z,-0.48
2023-03-12T05:41:23.018Z,-0.50
2023-03-12T05:43:50.712Z,-0.60
2023-03-12T05:46:18.391Z,-0.48
2023-03-12T05:48:46.100Z,-0.56
2023-03-12T05:51:15.551Z,-0.55
2023-03-12T05:53:43.260Z,-0.56
2023-03-12T05:56:13.926Z,-0.59
2023-03-12T05:58:42.170Z,-0.50
2023-03-12T06:01:13.406Z,-0.48
2023-03-12T06:03:42.818Z,-0.50
2023-03-12T06:06:10.576Z,-0.49
2023-03-12T06:08:39.967Z,-0.55
2023-03-12T06:11:07.718Z,-0.58
2023-03-12T06:13:35.504Z,-0.51
2023-03-12T06:16:05.379Z,-0.55
2023-03-12T06:18:33.183Z,-0.47
2023-03-12T06:21:12.472Z,-0.40
2023-03-12T06:23:41.939Z,-0.48
2023-03-12T06:26:10.366Z,-0.42
2023-03-12T06:28:38.645Z,-0.30
2023-03-12T06:31:06.972Z,-0.35
2023-03-12T06:33:35.230Z,-0.41
2023-03-12T06:36:05.019Z,-0.34
2023-03-12T06:38:33.086Z,-0.41
2023-03-12T06:41:04.513Z,-0.33
2023-03-12T06:43:33.932Z,-0.26
2023-03-12T06:46:02.192Z,-0.20
2023-03-12T06:48:31.016Z,-0.28
2023-03-12T06:50:58.776Z,-0.20
2023-03-12T06:53:27.195Z,-0.14
2023-03-12T06:55:54.900Z,-0.08
2023-03-12T06:58:23.969Z,-0.02
2023-03-12T07:00:51.996Z,0.06
2023-03-12T07:03:19.682Z,0.14
2023-03-12T07:05:48.957Z,0.04
2023-03-12T07:08:18.482Z,0.07
2023-03-12T07:10:46.644Z,0.22
2023-03-12T07:13:14.330Z,0.04
2023-03-12T07:15:44.992Z,0.19
2023-03-12T07:18:13.151Z,0.25
2023-03-12T07:20:42.421Z,0.35
2023-03-12T07:23:10.562Z,0.35
2023-03-12T07:25:38.598Z,0.38
2023-03-12T07:28:07.135Z,0.38
2023-03-12T07:30:35.184Z,0.37
2023-03-12T07:33:04.884Z,0.41
2023-03-12T07:35:33.513Z,0.47
2023-03-12T07:38:02.135Z,0.54
2023-03-12T07:40:30.230Z,0.53
2023-03-12T07:42:58.475Z,0.55
2023-03-12T07:45:26.404Z,0.56
2023-03-12T07:47:54.185Z,0.67
2023-03-12T07:50:23.272Z,0.64
2023-03-12T07:52:51.539Z,0.65
2023-03-12T07:55:19.554Z,0.62
2023-03-12T07:57:47.357Z,0.80
2023-03-12T08:00:17.101Z,0.90
2023-03-12T08:02:45.703Z,0.80
2023-03-12T08:05:13.578Z,0.96
2023-03-12T08:07:42.614Z,1.01
2023-03-12T08:10:11.924Z,1.23
2023-03-12T08:12:39.668Z,1.33
2023-03-12T08:15:09.509Z,1.38
2023-03-12T08:17:37.220Z,1.39
2023-03-12T08:20:05.815Z,1.44
2023-03-12T08:22:33.552Z,1.41
2023-03-12T08:25:02.625Z,1.51
2023-03-12T08:27:30.368Z,1.55
2023-03-12T08:29:58.059Z,1.63
2023-03-12T08:32:26.112Z,1.51
2023-03-12T08:34:53.939Z,1.52
2023-03-12T08:37:22.552Z,1.56
2023-03-12T08:39:50.192Z,1.84
2023-03-12T08:42:19.274Z,1.82
2023-03-12T08:44:46.908Z,2.01
2023-03-12T08:47:14.666Z,1.97
2023-03-12T08:49:42.297Z,2.06
2023-03-12T08:52:10.027Z,2.22
2023-03-12T08:54:37.847Z,2.35
2023-03-12T08:57:05.458Z,2.21
2023-03-12T08:59:34.501Z,2.27
2023-03-12T09:02:02.348Z,2.39
2023-03-12T09:04:30.078Z,2.30
2023-03-12T09:06:57.784Z,2.38
2023-03-12T09:09:25.368Z,2.41
2023-03-12T09:11:53.047Z,2.52
2023-03-12T09:17:09.671Z,2.84
2023-03-12T09:19:37.364Z,3.10
2023-03-12T09:22:05.050Z,3.31
2023-03-12T09:24:32.899Z,3.37
2023-03-12T09:27:00.786Z,3.56
2023-03-12T09:29:28.384Z,3.68
2023-03-12T09:32:00.287Z,3.77
2023-03-12T09:34:29.335Z,3.72
2023-03-12T09:36:57.207Z,3.83
2023-03-12T09:39:24.846Z,3.80
2023-03-12T09:41:52.788Z,3.80
2023-03-12T09:44:28.321Z,4.00
2023-03-12T09:47:00.947Z,3.88
2023-03-12T09:49:35.610Z,3.83
2023-03-12T09:52:09.453Z,3.81
2023-03-12T09:54:44.747Z,3.86
2023-03-12T09:57:20.596Z,3.92
2023-03-12T09:59:48.281Z,3.96
2023-03-12T10:02:43.009Z,3.95
2023-03-12T10:05:18.491Z,4.04
2023-03-12T10:07:53.215Z,4.04
2023-03-12T10:10:29.314Z,3.92
2023-03-12T10:13:12.821Z,4.07
2023-03-12T10:15:53.068Z,4.02
2023-03-12T10:18:34.485Z,4.10
2023-03-12T10:21:17.704Z,4.09
2023-03-12T10:24:01.482Z,4.24
2023-03-12T10:26:33.095Z,4.29
2023-03-12T10:29:05.391Z,4.18
2023-03-12T10:31:37.126Z,4.28
2023-03-12T10:34:14.603Z,4.37
2023-03-12T10:36:45.472Z,4.43
2023-03-12T10:39:16.724Z,4.40
2023-03-12T10:41:45.855Z,4.49
2023-03-12T10:44:19.536Z,4.67
2023-03-12T10:46:55.101Z,4.62
2023-03-12T10:49:29.202Z,4.63
2023-03-12T10:52:01.398Z,4.78
2023-03-12T10:54:32.378Z,4.91
2023-03-12T10:57:00.438Z,4.76
2023-03-12T10:59:31.390Z,5.02
2023-03-12T11:01:59.345Z,5.16
2023-03-12T11:04:30.366Z,5.20
2023-03-12T11:07:27.775Z,5.38
2023-03-12T11:10:15.208Z,5.43
2023-03-12T11:12:53.698Z,5.59
2023-03-12T11:15:24.451Z,5.45
2023-03-12T11:17:52.629Z,5.43
2023-03-12T11:20:28.003Z,5.38
2023-03-12T11:22:57.213Z,5.36
2023-03-12T11:25:27.896Z,5.34
2023-03-12T11:27:57.822Z,5.48
2023-03-12T11:30:34.867Z,5.38
2023-03-12T11:33:04.063Z,5.49
2023-03-12T11:35:46.398Z,5.47
2023-03-12T11:38:18.925Z,5.66
2023-03-12T11:41:04.484Z,5.52
2023-03-12T11:43:46.233Z,5.42
2023-03-12T11:46:28.142Z,5.47
2023-03-12T11:49:07.678Z,5.56
2023-03-12T11:51:47.434Z,5.47
2023-03-12T11:54:42.539Z,5.51
2023-03-12T11:57:16.948Z,5.56
2023-03-12T12:00:07.036Z,5.43
2023-03-12T12:02:57.843Z,5.37
2023-03-12T12:05:37.108Z,5.38
2023-03-12T12:08:24.246Z,5.41
2023-03-12T12:11:04.705Z,5.42
2023-03-12T12:13:42.860Z,5.39
2023-03-12T12:16:24.995Z,5.41
2023-03-12T12:19:05.563Z,5.42
2023-03-12T12:21:43.054Z,5.30
2023-03-12T12:24:22.514Z,5.40
2023-03-12T12:27:02.120Z,5.40
2023-03-12T12:29:52.076Z,5.39
2023-03-12T12:32:28.646Z,5.40
2023-03-12T12:35:16.183Z,5.37
2023-03-12T12:37:50.764Z,5.31
2023-03-12T12:40:24.295Z,5.35
2023-03-12T12:43:04.796Z,5.35
2023-03-12T12:45:32.488Z,5.43
2023-03-12T12:48:05.091Z,5.38
2023-03-12T12:50:37.184Z,5.36
2023-03-12T12:53:22.352Z,5.63
2023-03-12T12:56:01.158Z,5.54
2023-03-12T12:58:45.580Z,5.48
2023-03-12T13:01:15.954Z,5.59
2023-03-12T13:03:45.534Z,5.65
2023-03-12T13:06:13.243Z,5.57
2023-03-12T13:09:02.239Z,5.50
2023-03-12T13:11:39.314Z,5.66
2023-03-12T13:14:20.237Z,5.58
2023-03-12T13:16:49.077Z,5.54
2023-03-12T13:19:27.189Z,5.51
2023-03-12T13:22:11.848Z,5.55
2023-03-12T13:24:46.322Z,5.39
2023-03-12T13:27:19.937Z,5.45
2023-03-12T13:29:55.205Z,5.35
2023-03-12T13:33:01.538Z,5.32
2023-03-12T13:35:37.311Z,5.27
2023-03-12T13:38:08.374Z,5.27
2023-03-12T13:40:55.842Z,5.19
2023-03-12T13:43:48.721Z,5.09
2023-03-12T13:46:30.818Z,5.07
2023-03-12T13:49:04.586Z,5.23
2023-03-12T13:51:32.423Z,5.32
2023-03-12T13:54:02.709Z,5.32
2023-03-12T13:56:33.204Z,5.21
2023-03-12T13:59:02.380Z,5.22
2023-03-12T14:01:36.522Z,5.14
2023-03-12T14:04:08.987Z,5.07
2023-03-12T14:06:51.119Z,5.11
2023-03-12T14:09:25.535Z,5.26
2023-03-12T14:12:00.438Z,5.26
2023-03-12T14:14:48.007Z,5.26
2023-03-12T14:17:20.207Z,5.19
2023-03-12T14:19:51.786Z,5.33
2023-03-12T14:22:22.648Z,5.10
2023-03-12T14:24:54.345Z,5.11
2023-03-12T14:27:27.166Z,5.13
2023-03-12T14:29:59.133Z,5.17
2023-03-12T14:32:32.225Z,5.07
2023-03-12T14:35:18.809Z,5.07
2023-03-12T14:37:53.871Z,5.09
2023-03-12T14:40:25.387Z,5.06
2023-03-12T14:42:53.218Z,5.03
2023-03-12T14:45:23.809Z,5.03
2023-03-12T14:47:56.801Z,4.97
2023-03-12T14:50:27.643Z,4.84
2023-03-12T14:52:56.925Z,4.79
2023-03-12T14:55:26.761Z,4.81
2023-03-12T14:58:04.917Z,4.72
2023-03-12T15:00:33.035Z,4.73
2023-03-12T15:03:11.901Z,4.64
2023-03-12T15:05:39.922Z,4.52
2023-03-12T15:08:08.832Z,4.53
2023-03-12T15:10:37.758Z,4.49
2023-03-12T15:13:05.783Z,4.52
2023-03-12T15:15:41.374Z,4.57
2023-03-12T15:18:14.904Z,4.65
2023-03-12T15:20:42.930Z,4.62
2023-03-12T15:23:13.050Z,4.68
2023-03-12T15:25:41.463Z,4.63
2023-03-12T15:28:25.618Z,4.53
2023-03-12T15:31:07.731Z,4.61
2023-03-12T15:33:37.343Z,4.44
2023-03-12T15:36:16.958Z,4.50
2023-03-12T15:38:48.342Z,4.37
2023-03-12T15:41:19.624Z,4.33
2023-03-12T15:43:53.016Z,4.34
2023-03-12T15:46:20.932Z,4.16
2023-03-12T15:48:52.296Z,4.11
2023-03-12T15:51:35.720Z,4.05
2023-03-12T15:54:07.226Z,3.96
2023-03-12T15:56:36.291Z,3.81
2023-03-12T15:59:19.413Z,3.81
2023-03-12T16:01:47.922Z,3.80
2023-03-12T16:04:17.023Z,3.80
2023-03-12T16:06:48.163Z,3.87
2023-03-12T16:09:19.781Z,3.88
2023-03-12T16:11:48.690Z,3.78
2023-03-12T16:14:20.278Z,3.82
2023-03-12T16:16:48.508Z,3.78
2023-03-12T16:19:19.408Z,3.78
2023-03-12T16:21:47.535Z,3.80
2023-03-12T16:24:16.416Z,3.80
2023-03-12T16:26:49.366Z,3.79
2023-03-12T16:29:19.106Z,3.77
2023-03-12T16:31:50.311Z,3.81
2023-03-12T16:34:19.362Z,3.62
2023-03-12T16:36:46.925Z,3.49
2023-03-12T16:39:14.626Z,3.58
2023-03-12T16:41:43.072Z,3.52
2023-03-12T16:44:16.719Z,3.60
2023-03-12T16:46:46.149Z,3.65
2023-03-12T16:49:15.784Z,3.62
2023-03-12T16:51:45.088Z,3.52
2023-03-12T16:54:12.868Z,3.52
2023-03-12T16:56:43.927Z,3.44
2023-03-12T16:59:19.076Z,3.57
2023-03-12T17:01:46.765Z,3.55
2023-03-12T17:04:14.515Z,3.54
2023-03-12T17:06:42.301Z,3.49
2023-03-12T17:09:11.310Z,3.47
2023-03-12T17:11:39.557Z,3.39
2023-03-12T17:14:18.180Z,3.26
2023-03-12T17:16:46.276Z,3.29
2023-03-12T17:19:14.060Z,3.26
2023-03-12T17:21:41.951Z,3.20
2023-03-12T17:24:11.475Z,3.34
2023-03-12T17:26:39.162Z,3.28
2023-03-12T17:29:06.871Z,3.29
2023-03-12T17:31:36.034Z,3.37
2023-03-12T17:34:04.009Z,3.32
2023-03-12T17:36:31.725Z,3.25
2023-03-12T17:38:59.381Z,3.20
2023-03-12T17:41:28.370Z,3.35
2023-03-12T17:43:58.684Z,3.38
2023-03-12T17:46:26.344Z,3.36
2023-03-12T17:48:54.231Z,3.44
2023-03-12T17:51:22.298Z,3.40
2023-03-12T17:53:50.015Z,3.50
2023-03-12T17:56:19.115Z,3.43
2023-03-12T17:58:48.496Z,3.33
2023-03-12T18:01:17.554Z,3.41
2023-03-12T18:03:45.377Z,3.33
2023-03-12T18:06:13.407Z,3.32
2023-03-12T18:08:41.081Z,3.27
2023-03-12T18:11:08.744Z,3.15
2023-03-12T18:13:36.346Z,3.11
2023-03-12T18:16:05.916Z,3.21
2023-03-12T18:18:33.745Z,3.09
2023-03-12T18:21:01.395Z,2.94
2023-03-12T18:23:29.041Z,2.84
2023-03-12T18:25:56.729Z,3.03
2023-03-12T18:28:24.350Z,2.95
2023-03-12T18:30:54.364Z,2.96
2023-03-12T18:33:23.358Z,2.94
2023-03-12T18:35:53.868Z,2.87
2023-03-12T18:38:21.989Z,2.79
2023-03-12T18:40:51.269Z,2.83
2023-03-12T18:43:20.793Z,2.82
2023-03-12T18:45:50.728Z,2.87
2023-03-12T18:48:18.336Z,2.76
2023-03-12T18:50:47.298Z,2.88
2023-03-12T18:53:14.964Z,2.81
2023-03-12T18:55:42.911Z,2.79
2023-03-12T18:58:10.618Z,2.80
2023-03-12T19:00:38.336Z,2.84
2023-03-12T19:03:06.093Z,2.85
2023-03-12T19:05:33.846Z,2.77
2023-03-12T19:08:02.842Z,2.81
2023-03-12T19:10:30.628Z,2.81
2023-03-12T19:12:59.076Z,2.78
2023-03-12T19:15:26.898Z,2.82
2023-03-12T19:17:54.852Z,2.80
2023-03-12T19:20:22.873Z,2.76
2023-03-12T19:22:50.772Z,2.81
2023-03-12T19:25:20.022Z,2.64
2023-03-12T19:27:47.707Z,2.73
2023-03-12T19:30:15.991Z,2.60
2023-03-12T19:32:44.731Z,2.66
2023-03-12T19:35:14.703Z,2.71
2023-03-12T19:37:43.115Z,2.75
2023-03-12T19:40:13.197Z,2.66
2023-03-12T19:42:42.356Z,2.82
2023-03-12T19:45:11.180Z,2.81
2023-03-12T19:47:38.850Z,2.86
2023-03-12T19:50:07.558Z,2.76
2023-03-12T19:52:35.239Z,2.78
2023-03-12T19:55:05.455Z,2.76
2023-03-12T19:57:33.520Z,2.82
2023-03-12T20:00:07.191Z,2.88
2023-03-12T20:02:36.586Z,2.87
2023-03-12T20:05:04.396Z,2.96
2023-03-12T20:07:32.086Z,2.91
2023-03-12T20:09:59.806Z,2.92
2023-03-12T20:12:27.668Z,2.85
2023-03-12T20:14:55.345Z,2.80
2023-03-12T20:17:24.341Z,2.82
2023-03-12T20:19:52.014Z,2.98
2023-03-12T20:22:19.836Z,2.93
2023-03-12T20:24:47.835Z,2.95
2023-03-12T20:27:16.106Z,2.93
2023-03-12T20:29:46.055Z,3.00
2023-03-12T20:32:13.755Z,2.99
2023-03-12T20:34:42.949Z,2.99
2023-03-12T20:37:10.633Z,2.99
2023-03-12T20:39:38.484Z,3.00
2023-03-12T20:42:06.334Z,3.03
2023-03-12T20:44:33.992Z,3.19
2023-03-12T20:47:01.815Z,3.20
2023-03-12T20:49:29.493Z,3.15
2023-03-12T20:51:58.563Z,3.25
2023-03-12T20:54:27.286Z,3.29
2023-03-12T20:56:54.948Z,3.21
2023-03-12T20:59:22.673Z,3.39
2023-03-12T21:01:50.350Z,3.41
2023-03-12T21:04:18.099Z,3.50
2023-03-12T21:06:47.512Z,3.48
2023-03-12T21:09:16.511Z,3.59
2023-03-12T21:11:44.159Z,3.48
2023-03-12T21:14:11.927Z,3.57
2023-03-12T21:16:39.621Z,3.55
2023-03-12T21:19:07.406Z,3.69
2023-03-12T21:21:36.355Z,3.63
2023-03-12T21:24:04.303Z,3.66
2023-03-12T21:26:33.378Z,3.77
2023-03-12T21:29:01.009Z,3.82
2023-03-12T21:31:28.703Z,3.83
2023-03-12T21:33:56.889Z,3.84
2023-03-12T21:36:26.040Z,3.86
2023-03-12T21:38:53.699Z,3.88
2023-03-12T21:41:22.183Z,3.94
2023-03-12T21:43:51.186Z,3.97
2023-03-12T21:46:24.405Z,3.94
2023-03-12T21:48:52.237Z,3.99
2023-03-12T21:51:22.067Z,3.96
2023-03-12T21:53:54.489Z,4.01
2023-03-12T21:56:22.219Z,3.90
2023-03-12T21:58:51.242Z,4.04
2023-03-12T22:01:19.848Z,4.07
2023-03-12T22:03:47.782Z,4.10
2023-03-12T22:06:16.602Z,4.09
2023-03-12T22:08:45.209Z,4.02
2023-03-12T22:11:12.870Z,4.07
2023-03-12T22:13:40.539Z,4.13
2023-03-12T22:16:10.206Z,4.12
2023-03-12T22:18:39.538Z,4.16
2023-03-12T22:21:08.394Z,4.16
2023-03-12T22:23:37.121Z,4.28
2023-03-12T22:26:06.545Z,4.22
2023-03-12T22:28:34.749Z,4.24
2023-03-12T22:31:04.642Z,4.35
2023-03-12T22:33:35.610Z,4.37
2023-03-12T22:36:07.487Z,4.29
2023-03-12T22:38:36.566Z,4.41
2023-03-12T22:41:13.360Z,4.32
2023-03-12T22:43:41.124Z,4.32
2023-03-12T22:46:08.864Z,4.38
2023-03-12T22:48:38.143Z,4.39
2023-03-12T22:51:06.718Z,4.51
2023-03-12T22:53:35.097Z,4.47
2023-03-12T22:56:04.927Z,4.44
2023-03-12T22:58:32.859Z,4.63
2023-03-12T23:01:01.984Z,4.64
2023-03-12T23:03:31.145Z,4.64
2023-03-12T23:06:00.925Z,4.66
2023-03-12T23:08:29.051Z,4.66
2023-03-12T23:10:58.655Z,4.69
2023-03-12T23:13:27.715Z,4.72
2023-03-12T23:15:55.701Z,4.76
2023-03-12T23:18:23.407Z,4.70
2023-03-12T23:21:00.568Z,4.78
2023-03-12T23:23:29.015Z,4.75
2023-03-12T23:25:58.418Z,4.81
2023-03-12T23:28:27.238Z,4.74
2023-03-12T23:30:56.432Z,4.78
2023-03-12T23:33:24.235Z,4.79
2023-03-12T23:35:56.329Z,4.69
2023-03-12T23:38:26.248Z,4.89
2023-03-12T23:40:54.044Z,4.78
2023-03-12T23:43:21.680Z,4.86
2023-03-12T23:45:56.675Z,4.91
2023-03-12T23:48:24.483Z,4.90
2023-03-12T23:50:52.122Z,4.91
2023-03-12T23:53:19.971Z,4.83
2023-03-12T23:55:57.612Z,4.84
2023-03-12T23:58:25.966Z,4.76
